createdAt,value
2022-09-06T00:00:35.597Z,98465.44
2022-09-06T00:03:02.229Z,98464.63
2022-09-06T00:05:28.669Z,98460.56
2022-09-06T00:07:55.453Z,98467.84
2022-09-06T00:10:21.840Z,98463.84
2022-09-06T00:12:48.363Z,98458.63
2022-09-06T00:15:14.735Z,98463.84
2022-09-06T00:17:41.284Z,98469.91
2022-09-06T00:20:10.703Z,98467.53
2022-09-06T00:22:37.336Z,98463.09
2022-09-06T00:25:05.750Z,98459.06
2022-09-06T00:27:32.169Z,98443.81
2022-09-06T00:29:58.580Z,98449.50
2022-09-06T00:32:24.972Z,98433.44
2022-09-06T00:34:51.579Z,98441.47
2022-09-06T00:37:17.978Z,98441.13
2022-09-06T00:39:44.629Z,98435.50
2022-09-06T00:42:11.525Z,98440.31
2022-09-06T00:44:38.103Z,98445.16
2022-09-06T00:47:05.449Z,98452.41
2022-09-06T00:49:32.676Z,98436.34
2022-09-06T00:52:01.640Z,98435.56
2022-09-06T00:54:27.994Z,98427.13
2022-09-06T00:56:54.365Z,98429.13
2022-09-06T00:59:20.736Z,98431.53
2022-09-06T01:01:47.185Z,98427.56
2022-09-06T01:04:13.771Z,98427.16
2022-09-06T01:06:52.424Z,98422.75
2022-09-06T01:09:24.901Z,98422.31
2022-09-06T01:11:51.254Z,98421.94
2022-09-06T01:14:26.704Z,98418.72
2022-09-06T01:17:02.257Z,98415.50
2022-09-06T01:19:33.180Z,98422.34
2022-09-06T01:21:59.505Z,98415.91
2022-09-06T01:24:38.111Z,98411.09
2022-09-06T01:27:23.164Z,98403.50
2022-09-06T01:30:09.330Z,98404.31
2022-09-06T01:32:35.641Z,98403.09
2022-09-06T01:35:12.529Z,98404.69
2022-09-06T01:37:38.914Z,98403.47
2022-09-06T01:40:05.579Z,98391.03
2022-09-06T01:42:31.975Z,98394.63
2022-09-06T01:45:00.114Z,98395.88
2022-09-06T01:47:35.496Z,98393.88
2022-09-06T01:50:20.598Z,98395.88
2022-09-06T01:53:05.941Z,98393.06
2022-09-06T01:55:33.800Z,98396.28
2022-09-06T01:58:09.501Z,98396.69
2022-09-06T02:00:38.509Z,98395.88
2022-09-06T02:03:09.271Z,98390.25
2022-09-06T02:05:45.985Z,98382.66
2022-09-06T02:08:16.908Z,98384.25
2022-09-06T02:10:48.200Z,98389.06
2022-09-06T02:13:14.781Z,98389.06
2022-09-06T02:15:49.337Z,98383.84
2022-09-06T02:18:16.965Z,98391.84
2022-09-06T02:20:45.725Z,98385.84
2022-09-06T02:23:12.121Z,98385.44
2022-09-06T02:25:39.585Z,98378.22
2022-09-06T02:28:06.580Z,98373.00
2022-09-06T02:30:33.720Z,98377.81
2022-09-06T02:33:01.684Z,98376.59
2022-09-06T02:35:28.040Z,98375.00
2022-09-06T02:37:54.753Z,98374.97
2022-09-06T02:40:21.143Z,98371.78
2022-09-06T02:42:47.552Z,98365.81
2022-09-06T02:45:13.973Z,98367.38
2022-09-06T02:47:40.372Z,98367.81
2022-09-06T02:50:08.215Z,98369.41
2022-09-06T02:52:34.755Z,98371.41
2022-09-06T02:55:01.131Z,98358.16
2022-09-06T02:57:27.544Z,98365.78
2022-09-06T02:59:54.095Z,98364.19
2022-09-06T03:02:20.585Z,98369.00
2022-09-06T03:04:47.000Z,98373.41
2022-09-06T03:07:13.473Z,98367.81
2022-09-06T03:09:41.274Z,98363.78
2022-09-06T03:12:07.831Z,98367.38
2022-09-06T03:14:36.007Z,98367.41
2022-09-06T03:17:03.070Z,98372.63
2022-09-06T03:19:29.503Z,98369.81
2022-09-06T03:21:55.897Z,98363.78
2022-09-06T03:24:22.247Z,98361.38
2022-09-06T03:26:48.663Z,98345.72
2022-09-06T03:29:15.041Z,98354.16
2022-09-06T03:31:41.435Z,98353.75
2022-09-06T03:34:10.977Z,98348.13
2022-09-06T03:36:37.656Z,98348.56
2022-09-06T03:39:04.015Z,98347.34
2022-09-06T03:41:30.413Z,98340.50
2022-09-06T03:43:56.824Z,98346.13
2022-09-06T03:46:23.277Z,98346.88
2022-09-06T03:48:49.986Z,98344.50
2022-09-06T03:51:16.350Z,98336.47
2022-09-06T03:53:42.762Z,98329.66
2022-09-06T03:56:09.131Z,98333.25
2022-09-06T03:58:35.499Z,98341.69
2022-09-06T04:01:04.403Z,98329.66
2022-09-06T04:03:30.948Z,98328.84
2022-09-06T04:05:57.316Z,98324.03
2022-09-06T04:08:23.776Z,98324.44
2022-09-06T04:10:51.308Z,98320.41
2022-09-06T04:13:17.776Z,98322.41
2022-09-06T04:15:50.297Z,98318.41
2022-09-06T04:18:16.681Z,98314.41
2022-09-06T04:20:43.051Z,98316.81
2022-09-06T04:23:09.455Z,98314.00
2022-09-06T04:25:35.831Z,98314.81
2022-09-06T04:28:02.314Z,98323.66
2022-09-06T04:30:28.706Z,98324.47
2022-09-06T04:32:55.084Z,98343.72
2022-09-06T04:35:21.453Z,98365.41
2022-09-06T04:37:47.845Z,98377.03
2022-09-06T04:40:14.230Z,98355.75
2022-09-06T04:42:40.656Z,98353.75
2022-09-06T04:45:07.247Z,98373.81
2022-09-06T04:47:33.627Z,98351.75
2022-09-06T04:49:59.979Z,98328.47
2022-09-06T04:52:30.120Z,98328.06
2022-09-06T04:54:56.759Z,98340.09
2022-09-06T04:57:23.158Z,98336.91
2022-09-06T04:59:49.536Z,98342.91
2022-09-06T05:02:15.999Z,98340.53
2022-09-06T05:04:42.395Z,98342.53
2022-09-06T05:07:08.903Z,98336.50
2022-09-06T05:09:35.312Z,98334.09
2022-09-06T05:12:01.858Z,98340.50
2022-09-06T05:14:28.452Z,98347.34
2022-09-06T05:16:54.899Z,98345.34
2022-09-06T05:19:21.470Z,98339.72
2022-09-06T05:21:47.831Z,98331.31
2022-09-06T05:24:14.252Z,98334.91
2022-09-06T05:26:40.632Z,98339.72
2022-09-06T05:29:07.014Z,98334.09
2022-09-06T05:31:33.820Z,98338.13
2022-09-06T05:34:00.450Z,98346.13
2022-09-06T05:36:27.117Z,98367.41
2022-09-06T05:38:54.072Z,98362.19
2022-09-06T05:41:20.502Z,98357.38
2022-09-06T05:43:46.983Z,98358.16
2022-09-06T05:46:13.455Z,98351.75
2022-09-06T05:48:39.928Z,98351.34
2022-09-06T05:51:10.024Z,98369.41
2022-09-06T05:53:36.635Z,98366.19
2022-09-06T05:56:03.346Z,98366.19
2022-09-06T05:58:29.803Z,98356.53
2022-09-06T06:01:14.275Z,98371.81
2022-09-06T06:03:40.736Z,98382.22
2022-09-06T06:06:07.143Z,98375.78
2022-09-06T06:08:34.429Z,98375.00
2022-09-06T06:11:00.826Z,98385.03
2022-09-06T06:13:27.481Z,98375.78
2022-09-06T06:15:53.896Z,98373.00
2022-09-06T06:18:20.386Z,98373.38
2022-09-06T06:20:46.863Z,98383.03
2022-09-06T06:23:14.639Z,98373.00
2022-09-06T06:25:41.027Z,98375.00
2022-09-06T06:28:07.431Z,98368.59
2022-09-06T06:30:33.800Z,98376.22
2022-09-06T06:33:02.159Z,98373.00
2022-09-06T06:35:28.581Z,98355.75
2022-09-06T06:37:56.336Z,98364.97
2022-09-06T06:40:22.754Z,98367.75
2022-09-06T06:42:49.190Z,98365.72
2022-09-06T06:45:15.665Z,98371.34
2022-09-06T06:47:42.109Z,98372.16
2022-09-06T06:50:08.584Z,98360.09
2022-09-06T06:52:34.982Z,98368.13
2022-09-06T06:55:01.356Z,98369.31
2022-09-06T06:57:27.723Z,98373.34
2022-09-06T06:59:54.099Z,98372.91
2022-09-06T07:02:20.562Z,98373.69
2022-09-06T07:04:46.986Z,98371.69
2022-09-06T07:12:46.305Z,98373.03
2022-09-06T07:15:12.676Z,98373.66
2022-09-06T07:17:39.728Z,98368.28
2022-09-06T07:20:14.281Z,98356.53
2022-09-06T07:22:41.429Z,98356.47
2022-09-06T07:25:08.341Z,98353.19
2022-09-06T07:27:50.428Z,98358.81
2022-09-06T07:30:17.408Z,98368.56
2022-09-06T07:32:43.797Z,98380.50
2022-09-06T07:35:10.170Z,98378.53
2022-09-06T07:37:36.670Z,98382.72
2022-09-06T07:40:03.469Z,98385.63
2022-09-06T07:42:36.150Z,98380.41
2022-09-06T07:45:03.335Z,98374.66
2022-09-06T07:55:32.349Z,98373.47
2022-09-06T07:57:58.782Z,98372.38
2022-09-06T08:00:25.577Z,98381.44
2022-09-06T08:02:51.961Z,98371.84
2022-09-06T08:10:51.315Z,98384.69
2022-09-06T08:13:17.696Z,98384.16
2022-09-06T08:15:44.080Z,98385.94
2022-09-06T08:18:10.497Z,98389.47
2022-09-06T08:20:36.900Z,98386.47
2022-09-06T08:23:05.740Z,98382.09
2022-09-06T08:25:32.119Z,98385.13
2022-09-06T08:27:58.506Z,98378.16
2022-09-06T08:30:24.922Z,98379.41
2022-09-06T08:32:52.055Z,98381.16
2022-09-06T08:35:18.441Z,98375.25
2022-09-06T08:37:44.838Z,98372.94
2022-09-06T08:40:11.361Z,98372.69
2022-09-06T08:42:39.615Z,98370.44
2022-09-06T08:45:09.435Z,98373.09
2022-09-06T08:47:35.869Z,98364.63
2022-09-06T08:50:05.584Z,98367.16
2022-09-06T08:52:54.476Z,98366.56
2022-09-06T08:55:37.818Z,98377.63
2022-09-06T08:58:04.812Z,98374.78
2022-09-06T09:00:31.414Z,98366.84
2022-09-06T09:03:08.186Z,98368.69
2022-09-06T09:05:35.085Z,98358.63
2022-09-06T09:08:12.399Z,98349.47
2022-09-06T09:10:40.738Z,98346.47
2022-09-06T09:13:07.848Z,98350.59
2022-09-06T09:15:37.135Z,98350.16
2022-09-06T09:18:06.578Z,98350.38
2022-09-06T09:20:32.952Z,98354.13
2022-09-06T09:22:59.347Z,98353.28
2022-09-06T09:25:31.901Z,98354.78
2022-09-06T09:27:58.348Z,98349.88
2022-09-06T09:33:41.325Z,98352.00
2022-09-06T09:36:08.383Z,98360.00
2022-09-06T09:38:44.407Z,98356.00
2022-09-06T09:41:10.911Z,98341.00
2022-09-06T09:43:37.333Z,98339.53
2022-09-06T09:46:13.330Z,98346.50
2022-09-06T09:48:40.121Z,98341.38
2022-09-06T09:51:26.313Z,98343.56
2022-09-06T09:53:53.600Z,98343.13
2022-09-06T09:56:27.569Z,98343.66
2022-09-06T09:58:54.765Z,98340.91
2022-09-06T10:01:30.870Z,98338.72
2022-09-06T10:09:34.976Z,98331.03
2022-09-06T10:12:01.665Z,98334.16
2022-09-06T10:14:31.780Z,98325.44
2022-09-06T10:16:58.447Z,98328.06
2022-09-06T10:19:33.717Z,98326.13
2022-09-06T10:22:01.817Z,98328.06
2022-09-06T10:24:36.424Z,98325.81
2022-09-06T10:27:02.827Z,98331.78
2022-09-06T10:29:37.465Z,98322.31
2022-09-06T10:32:06.645Z,98328.97
2022-09-06T10:34:42.882Z,98331.34
2022-09-06T10:37:21.600Z,98324.69
2022-09-06T10:40:08.476Z,98324.16
2022-09-06T10:42:34.906Z,98323.06
2022-09-06T10:45:20.217Z,98318.84
2022-09-06T10:47:52.859Z,98309.22
2022-09-06T10:50:19.413Z,98315.59
2022-09-06T10:52:45.823Z,98316.03
2022-09-06T10:55:17.685Z,98325.53
2022-09-06T11:00:36.082Z,98310.16
2022-09-06T11:06:08.652Z,98314.81
2022-09-06T11:08:58.513Z,98305.25
2022-09-06T11:11:38.836Z,98302.31
2022-09-06T11:14:06.332Z,98307.59
2022-09-06T11:16:33.866Z,98304.75
2022-09-06T11:19:05.479Z,98305.53
2022-09-06T11:21:50.829Z,98314.41
2022-09-06T11:24:22.699Z,98293.47
2022-09-06T11:27:05.004Z,98302.88
2022-09-06T11:29:31.672Z,98295.44
2022-09-06T11:32:18.157Z,98310.34
2022-09-06T11:34:52.243Z,98311.34
2022-09-06T11:37:32.720Z,98309.56
2022-09-06T11:42:51.029Z,98307.97
2022-09-06T11:45:21.474Z,98306.22
2022-09-06T11:47:48.722Z,98299.88
2022-09-06T11:50:21.180Z,98308.06
2022-09-06T11:53:06.193Z,98305.94
2022-09-06T11:55:39.630Z,98300.03
2022-09-06T11:58:09.319Z,98305.59
2022-09-06T12:00:35.867Z,98293.81
2022-09-06T12:06:07.572Z,98297.28
2022-09-06T12:08:34.250Z,98292.91
2022-09-06T12:11:01.685Z,98299.56
2022-09-06T12:13:35.279Z,98298.88
2022-09-06T12:16:01.719Z,98294.00
2022-09-06T12:18:43.565Z,98292.75
2022-09-06T12:21:10.389Z,98295.59
2022-09-06T12:23:36.783Z,98292.56
2022-09-06T12:26:03.752Z,98294.19
2022-09-06T12:28:34.837Z,98292.56
2022-09-06T12:31:01.483Z,98296.22
2022-09-06T12:33:36.263Z,98290.44
2022-09-06T12:36:12.290Z,98281.06
2022-09-06T12:38:38.694Z,98280.63
2022-09-06T12:41:05.770Z,98284.06
2022-09-06T12:43:36.140Z,98281.31
2022-09-06T12:46:02.587Z,98282.56
2022-09-06T12:48:29.909Z,98284.38
2022-09-06T12:51:03.136Z,98281.28
2022-09-06T12:53:31.505Z,98272.97
2022-09-06T12:56:07.910Z,98270.94
2022-09-06T12:58:34.604Z,98268.78
2022-09-06T13:01:08.644Z,98263.00
2022-09-06T13:03:45.715Z,98264.16
2022-09-06T13:06:16.359Z,98256.38
2022-09-06T13:08:45.551Z,98255.97
2022-09-06T13:11:13.416Z,98258.59
2022-09-06T13:13:49.671Z,98257.09
2022-09-06T13:16:22.830Z,98252.97
2022-09-06T13:18:49.297Z,98253.97
2022-09-06T13:21:24.235Z,98245.75
2022-09-06T13:23:51.043Z,98252.97
2022-09-06T13:26:36.549Z,98250.19
2022-09-06T13:29:10.569Z,98240.97
2022-09-06T13:31:37.517Z,98241.03
2022-09-06T13:34:03.955Z,98235.50
2022-09-06T13:36:33.827Z,98233.31
2022-09-06T13:39:03.312Z,98235.38
2022-09-06T13:41:40.687Z,98232.00
2022-09-06T13:44:16.187Z,98234.72
2022-09-06T13:46:42.633Z,98237.25
2022-09-06T13:49:09.134Z,98222.34
2022-09-06T13:51:35.550Z,98223.09
2022-09-06T13:54:12.036Z,98220.72
2022-09-06T13:56:39.295Z,98219.13
2022-09-06T13:59:05.770Z,98222.00
2022-09-06T14:01:32.667Z,98219.13
2022-09-06T14:03:59.408Z,98227.38
2022-09-06T14:06:25.811Z,98224.53
2022-09-06T14:09:08.531Z,98222.56
2022-09-06T14:11:35.550Z,98224.28
2022-09-06T14:14:01.965Z,98227.13
2022-09-06T14:16:28.337Z,98224.75
2022-09-06T14:18:54.809Z,98229.97
2022-09-06T14:21:21.241Z,98221.34
2022-09-06T14:23:51.100Z,98226.59
2022-09-06T14:26:18.769Z,98224.22
2022-09-06T14:28:45.371Z,98227.84
2022-09-06T14:31:15.717Z,98226.78
2022-09-06T14:33:42.204Z,98228.06
2022-09-06T14:36:09.214Z,98219.94
2022-09-06T14:38:36.802Z,98213.28
2022-09-06T14:41:04.029Z,98212.03
2022-09-06T14:43:30.468Z,98210.38
2022-09-06T14:46:02.377Z,98211.34
2022-09-06T14:48:30.969Z,98214.75
2022-09-06T14:50:57.648Z,98215.72
2022-09-06T14:53:39.399Z,98208.81
2022-09-06T14:56:06.922Z,98205.94
2022-09-06T14:58:33.800Z,98197.88
2022-09-06T15:01:13.801Z,98194.47
2022-09-06T15:03:46.228Z,98193.53
2022-09-06T15:06:12.587Z,98194.03
2022-09-06T15:08:39.027Z,98189.28
2022-09-06T15:11:08.059Z,98184.72
2022-09-06T15:13:36.256Z,98180.41
2022-09-06T15:16:02.856Z,98177.56
2022-09-06T15:18:29.580Z,98172.72
2022-09-06T15:20:55.960Z,98180.34
2022-09-06T15:23:25.200Z,98172.59
2022-09-06T15:25:52.185Z,98174.63
2022-09-06T15:28:19.360Z,98169.88
2022-09-06T15:30:46.129Z,98172.00
2022-09-06T15:33:14.916Z,98168.41
2022-09-06T15:35:42.495Z,98170.63
2022-09-06T15:38:09.209Z,98167.00
2022-09-06T15:40:35.586Z,98165.44
2022-09-06T15:43:03.139Z,98159.88
2022-09-06T15:45:29.783Z,98162.50
2022-09-06T15:47:56.635Z,98156.00
2022-09-06T15:50:47.476Z,98146.50
2022-09-06T15:53:10.033Z,98145.72
2022-09-06T15:55:55.062Z,98138.28
2022-09-06T15:58:22.396Z,98138.72
2022-09-06T16:01:01.849Z,98140.19
2022-09-06T16:03:28.479Z,98134.81
2022-09-06T16:08:41.764Z,98137.50
2022-09-06T16:11:08.956Z,98130.41
2022-09-06T16:13:35.486Z,98121.06
2022-09-06T16:16:02.480Z,98116.41
2022-09-06T16:18:28.945Z,98116.81
2022-09-06T16:20:55.387Z,98116.16
2022-09-06T16:23:21.795Z,98120.00
2022-09-06T16:25:54.207Z,98116.38
2022-09-06T16:28:20.621Z,98123.16
2022-09-06T16:30:47.027Z,98120.03
2022-09-06T16:33:13.478Z,98118.09
2022-09-06T16:35:40.536Z,98120.84
2022-09-06T16:38:09.083Z,98116.03
2022-09-06T16:40:35.833Z,98111.06
2022-09-06T16:43:03.264Z,98114.00
2022-09-06T16:45:30.275Z,98115.50
2022-09-06T16:47:56.666Z,98114.41
2022-09-06T16:50:23.068Z,98108.03
2022-09-06T16:52:50.246Z,98113.16
2022-09-06T16:55:17.131Z,98114.22
2022-09-06T16:57:43.522Z,98115.31
2022-09-06T17:00:11.265Z,98123.06
2022-09-06T17:02:37.718Z,98127.41
2022-09-06T17:05:04.372Z,98125.34
2022-09-06T17:07:31.152Z,98128.50
2022-09-06T17:09:57.523Z,98127.16
2022-09-06T17:12:24.090Z,98136.34
2022-09-06T17:14:50.453Z,98133.16
2022-09-06T17:17:17.825Z,98139.63
2022-09-06T17:19:44.393Z,98138.28
2022-09-06T17:22:11.151Z,98145.28
2022-09-06T17:24:37.593Z,98142.75
2022-09-06T17:27:04.438Z,98138.41
2022-09-06T17:29:31.213Z,98136.25
2022-09-06T17:31:57.576Z,98135.19
2022-09-06T17:34:23.951Z,98137.31
2022-09-06T17:36:50.377Z,98137.19
2022-09-06T17:39:20.965Z,98130.38
2022-09-06T17:41:49.798Z,98128.84
2022-09-06T17:44:17.092Z,98124.94
2022-09-06T17:46:57.109Z,98129.38
2022-09-06T17:49:30.526Z,98129.50
2022-09-06T17:51:57.117Z,98126.44
2022-09-06T17:54:23.842Z,98130.66
2022-09-06T17:56:50.223Z,98129.97
2022-09-06T17:59:16.672Z,98128.56
2022-09-06T18:01:43.445Z,98134.13
2022-09-06T18:04:10.116Z,98133.94
2022-09-06T18:06:38.344Z,98128.81
2022-09-06T18:09:05.784Z,98132.09
2022-09-06T18:11:32.969Z,98128.19
2022-09-06T18:14:03.670Z,98129.25
2022-09-06T18:16:30.414Z,98133.56
2022-09-06T18:18:57.687Z,98129.63
2022-09-06T18:21:24.289Z,98130.22
2022-09-06T18:23:51.231Z,98131.38
2022-09-06T18:26:17.621Z,98134.28
2022-09-06T18:28:44.106Z,98138.56
2022-09-06T18:31:11.186Z,98132.78
2022-09-06T18:33:37.698Z,98133.69
2022-09-06T18:36:04.794Z,98139.03
2022-09-06T18:38:31.425Z,98134.81
2022-09-06T18:40:59.197Z,98137.63
2022-09-06T18:43:30.627Z,98139.13
2022-09-06T18:46:03.768Z,98130.81
2022-09-06T18:48:31.365Z,98142.41
2022-09-06T18:50:59.902Z,98132.13
2022-09-06T18:53:26.485Z,98128.19
2022-09-06T18:55:53.095Z,98136.50
2022-09-06T18:58:19.580Z,98139.69
2022-09-06T19:00:46.132Z,98134.91
2022-09-06T19:03:12.553Z,98130.94
2022-09-06T19:05:38.954Z,98140.53
2022-09-06T19:08:05.377Z,98140.94
2022-09-06T19:10:31.779Z,98135.78
2022-09-06T19:12:58.150Z,98141.69
2022-09-06T19:15:24.701Z,98135.75
2022-09-06T19:17:51.119Z,98138.00
2022-09-06T19:20:18.163Z,98138.00
2022-09-06T19:22:44.725Z,98139.59
2022-09-06T19:25:11.110Z,98139.69
2022-09-06T19:27:37.777Z,98146.59
2022-09-06T19:30:06.834Z,98144.31
2022-09-06T19:32:33.484Z,98140.69
2022-09-06T19:35:01.419Z,98137.66
2022-09-06T19:37:28.045Z,98136.06
2022-09-06T19:39:54.715Z,98131.50
2022-09-06T19:42:21.101Z,98131.25
2022-09-06T19:44:47.485Z,98125.09
2022-09-06T19:47:13.902Z,98130.66
2022-09-06T19:49:40.348Z,98125.06
2022-09-06T19:52:09.690Z,98126.59
2022-09-06T19:54:36.820Z,98122.63
2022-09-06T19:57:03.727Z,98113.28
2022-09-06T19:59:30.194Z,98112.88
2022-09-06T20:01:59.519Z,98118.41
2022-09-06T20:04:28.526Z,98104.09
2022-09-06T20:06:54.900Z,98103.84
2022-09-06T20:09:21.295Z,98091.06
2022-09-06T20:11:48.093Z,98104.94
2022-09-06T20:14:14.468Z,98099.09
2022-09-06T20:16:42.032Z,98096.44
2022-09-06T20:19:08.931Z,98091.66
2022-09-06T20:21:35.303Z,98095.59
2022-09-06T20:24:01.710Z,98084.88
2022-09-06T20:26:28.728Z,98079.19
2022-09-06T20:28:55.856Z,98083.13
2022-09-06T20:31:22.333Z,98078.06
2022-09-06T20:33:49.827Z,98074.94
2022-09-06T20:36:16.485Z,98066.97
2022-09-06T20:38:43.161Z,98063.34
2022-09-06T20:41:10.790Z,98067.75
2022-09-06T20:43:37.580Z,98061.75
2022-09-06T20:46:04.598Z,98058.50
2022-09-06T20:48:32.341Z,98067.31
2022-09-06T20:51:02.555Z,98058.69
2022-09-06T20:53:29.652Z,98049.00
2022-09-06T20:55:57.471Z,98059.16
2022-09-06T20:58:24.280Z,98049.84
2022-09-06T21:00:52.016Z,98050.81
2022-09-06T21:03:18.564Z,98044.59
2022-09-06T21:05:44.954Z,98049.09
2022-09-06T21:08:11.812Z,98057.16
2022-09-06T21:10:38.444Z,98055.53
2022-09-06T21:13:04.828Z,98051.56
2022-09-06T21:15:34.724Z,98062.84
2022-09-06T21:18:01.408Z,98072.00
2022-09-06T21:20:27.801Z,98069.06
2022-09-06T21:22:54.169Z,98068.28
2022-09-06T21:25:20.649Z,98057.06
2022-09-06T21:27:47.019Z,98060.03
2022-09-06T21:30:13.403Z,98065.28
2022-09-06T21:32:39.770Z,98060.03
2022-09-06T21:35:06.270Z,98051.06
2022-09-06T21:37:32.644Z,98062.47
2022-09-06T21:39:59.045Z,98051.19
2022-09-06T21:42:27.667Z,98053.09
2022-09-06T21:44:54.047Z,98046.69
2022-09-06T21:47:20.448Z,98046.50
2022-09-06T21:49:46.846Z,98041.13
2022-09-06T21:52:13.231Z,98055.16
2022-09-06T21:54:39.691Z,98047.44
2022-09-06T21:57:06.051Z,98042.91
2022-09-06T21:59:32.468Z,98042.38
2022-09-06T22:01:58.958Z,98034.59
2022-09-06T22:04:25.364Z,98041.53
2022-09-06T22:06:51.882Z,98043.13
2022-09-06T22:09:18.267Z,98045.53
2022-09-06T22:11:44.694Z,98048.81
2022-09-06T22:14:11.701Z,98051.56
2022-09-06T22:16:38.322Z,98050.34
2022-09-06T22:19:05.153Z,98039.97
2022-09-06T22:21:31.538Z,98035.88
2022-09-06T22:23:58.837Z,98042.47
2022-09-06T22:26:25.814Z,98032.03
2022-09-06T22:28:52.872Z,98040.47
2022-09-06T22:31:19.314Z,98038.66
2022-09-06T22:33:45.709Z,98037.09
2022-09-06T22:36:12.487Z,98045.19
2022-09-06T22:38:38.932Z,98035.63
2022-09-06T22:41:05.317Z,98032.88
2022-09-06T22:43:32.200Z,98029.31
2022-09-06T22:46:02.301Z,98024.84
2022-09-06T22:48:28.829Z,98023.25
2022-09-06T22:50:55.259Z,98021.72
2022-09-06T22:53:21.838Z,98022.56
2022-09-06T22:55:48.306Z,98019.34
2022-09-06T22:58:14.786Z,98018.91
2022-09-06T23:00:41.250Z,98007.56
2022-09-06T23:03:07.644Z,98015.94
2022-09-06T23:05:34.125Z,98020.69
2022-09-06T23:08:01.982Z,98008.28
2022-09-06T23:10:28.678Z,98014.81
2022-09-06T23:12:55.083Z,98005.31
2022-09-06T23:15:21.504Z,97996.09
2022-09-06T23:17:47.966Z,98000.50
2022-09-06T23:20:14.354Z,97997.72
2022-09-06T23:22:40.977Z,97984.44
2022-09-06T23:25:07.669Z,97987.63
2022-09-06T23:27:34.138Z,97981.97
2022-09-06T23:30:01.010Z,97975.81
2022-09-06T23:32:27.975Z,97975.91
2022-09-06T23:34:55.728Z,97976.75
2022-09-06T23:37:22.317Z,97980.88
2022-09-06T23:39:48.762Z,97978.44
2022-09-06T23:42:15.222Z,97982.03
2022-09-06T23:44:41.608Z,97978.81
2022-09-06T23:47:07.979Z,97977.72
2022-09-06T23:49:34.363Z,97973.25
2022-09-06T23:52:00.733Z,97975.78
2022-09-06T23:54:27.119Z,97974.25
2022-09-06T23:56:53.613Z,97974.09
2022-09-06T23:59:19.985Z,97968.16
